sensor_id;sensor_type;location;lat;lon;timestamp;P1;durP1;ratioP1;P2;durP2;ratioP2
65759;SDS011;52496;51.082;5.066;2024-03-06T00:00:57;15.27;;;9.02;;
65759;SDS011;52496;51.082;5.066;2024-03-06T00:03:28;20.40;;;9.32;;
65759;SDS011;52496;51.082;5.066;2024-03-06T00:05:58;14.60;;;8.77;;
65759;SDS011;52496;51.082;5.066;2024-03-06T00:08:28;16.80;;;9.07;;
65759;SDS011;52496;51.082;5.066;2024-03-06T00:10:59;18.85;;;8.73;;
65759;SDS011;52496;51.082;5.066;2024-03-06T00:13:45;11.05;;;7.40;;
65759;SDS011;52496;51.082;5.066;2024-03-06T00:16:17;14.48;;;8.65;;
65759;SDS011;52496;51.082;5.066;2024-03-06T00:18:48;12.77;;;8.55;;
65759;SDS011;52496;51.082;5.066;2024-03-06T00:21:18;18.40;;;9.20;;
65759;SDS011;52496;51.082;5.066;2024-03-06T00:26:53;16.13;;;8.73;;
65759;SDS011;52496;51.082;5.066;2024-03-06T00:29:24;16.35;;;9.07;;
65759;SDS011;52496;51.082;5.066;2024-03-06T00:31:54;15.82;;;8.45;;
65759;SDS011;52496;51.082;5.066;2024-03-06T00:34:25;16.38;;;9.35;;
65759;SDS011;52496;51.082;5.066;2024-03-06T00:36:57;14.32;;;8.90;;
65759;SDS011;52496;51.082;5.066;2024-03-06T00:39:46;12.48;;;8.13;;
65759;SDS011;52496;51.082;5.066;2024-03-06T00:42:16;15.63;;;8.82;;
65759;SDS011;52496;51.082;5.066;2024-03-06T00:44:48;16.73;;;8.88;;
65759;SDS011;52496;51.082;5.066;2024-03-06T00:47:24;16.80;;;8.90;;
65759;SDS011;52496;51.082;5.066;2024-03-06T00:49:54;12.80;;;7.97;;
65759;SDS011;52496;51.082;5.066;2024-03-06T00:52:25;14.35;;;8.68;;
65759;SDS011;52496;51.082;5.066;2024-03-06T00:54:55;18.98;;;8.73;;
65759;SDS011;52496;51.082;5.066;2024-03-06T00:57:26;12.88;;;7.18;;
65759;SDS011;52496;51.082;5.066;2024-03-06T00:59:57;15.27;;;7.45;;
65759;SDS011;52496;51.082;5.066;2024-03-06T01:02:27;12.70;;;7.70;;
65759;SDS011;52496;51.082;5.066;2024-03-06T01:04:58;12.45;;;7.50;;
65759;SDS011;52496;51.082;5.066;2024-03-06T01:07:29;13.15;;;8.85;;
65759;SDS011;52496;51.082;5.066;2024-03-06T01:10:02;13.85;;;8.77;;
65759;SDS011;52496;51.082;5.066;2024-03-06T01:12:34;14.38;;;8.30;;
65759;SDS011;52496;51.082;5.066;2024-03-06T01:15:05;19.05;;;8.35;;
65759;SDS011;52496;51.082;5.066;2024-03-06T01:17:35;11.23;;;7.30;;
65759;SDS011;52496;51.082;5.066;2024-03-06T01:20:06;13.38;;;7.97;;
65759;SDS011;52496;51.082;5.066;2024-03-06T01:22:37;17.25;;;8.10;;
65759;SDS011;52496;51.082;5.066;2024-03-06T01:25:09;15.32;;;7.55;;
65759;SDS011;52496;51.082;5.066;2024-03-06T01:27:40;13.05;;;7.53;;
65759;SDS011;52496;51.082;5.066;2024-03-06T01:30:11;11.90;;;7.40;;
65759;SDS011;52496;51.082;5.066;2024-03-06T01:32:41;13.05;;;8.05;;
65759;SDS011;52496;51.082;5.066;2024-03-06T01:35:12;13.20;;;8.45;;
65759;SDS011;52496;51.082;5.066;2024-03-06T01:37:43;15.35;;;8.32;;
65759;SDS011;52496;51.082;5.066;2024-03-06T01:40:14;12.77;;;7.50;;
65759;SDS011;52496;51.082;5.066;2024-03-06T01:42:46;14.63;;;7.20;;
65759;SDS011;52496;51.082;5.066;2024-03-06T01:45:27;13.32;;;7.55;;
65759;SDS011;52496;51.082;5.066;2024-03-06T01:47:58;12.02;;;6.72;;
65759;SDS011;52496;51.082;5.066;2024-03-06T01:50:28;11.52;;;7.20;;
65759;SDS011;52496;51.082;5.066;2024-03-06T01:52:59;11.50;;;8.10;;
65759;SDS011;52496;51.082;5.066;2024-03-06T01:55:29;12.20;;;7.93;;
65759;SDS011;52496;51.082;5.066;2024-03-06T01:58:00;11.77;;;7.25;;
65759;SDS011;52496;51.082;5.066;2024-03-06T02:00:30;13.48;;;7.28;;
65759;SDS011;52496;51.082;5.066;2024-03-06T02:03:01;9.27;;;6.68;;
65759;SDS011;52496;51.082;5.066;2024-03-06T02:05:37;12.15;;;8.20;;
65759;SDS011;52496;51.082;5.066;2024-03-06T02:08:11;9.02;;;6.57;;
65759;SDS011;52496;51.082;5.066;2024-03-06T02:10:44;10.75;;;7.32;;
65759;SDS011;52496;51.082;5.066;2024-03-06T02:13:16;13.48;;;7.78;;
65759;SDS011;52496;51.082;5.066;2024-03-06T02:15:48;12.77;;;7.45;;
65759;SDS011;52496;51.082;5.066;2024-03-06T02:18:19;11.27;;;6.65;;
65759;SDS011;52496;51.082;5.066;2024-03-06T02:20:50;11.25;;;6.60;;
65759;SDS011;52496;51.082;5.066;2024-03-06T02:23:21;11.40;;;6.70;;
65759;SDS011;52496;51.082;5.066;2024-03-06T02:25:53;12.32;;;6.53;;
65759;SDS011;52496;51.082;5.066;2024-03-06T02:28:25;13.05;;;6.65;;
65759;SDS011;52496;51.082;5.066;2024-03-06T02:30:55;18.67;;;7.03;;
65759;SDS011;52496;51.082;5.066;2024-03-06T02:33:26;12.00;;;6.78;;
65759;SDS011;52496;51.082;5.066;2024-03-06T02:35:58;15.00;;;7.30;;
65759;SDS011;52496;51.082;5.066;2024-03-06T02:38:35;16.27;;;7.03;;
65759;SDS011;52496;51.082;5.066;2024-03-06T02:41:06;10.38;;;6.93;;
65759;SDS011;52496;51.082;5.066;2024-03-06T02:43:37;12.60;;;7.10;;
65759;SDS011;52496;51.082;5.066;2024-03-06T02:46:07;12.60;;;7.07;;
65759;SDS011;52496;51.082;5.066;2024-03-06T02:48:38;10.95;;;6.65;;
65759;SDS011;52496;51.082;5.066;2024-03-06T02:51:09;15.25;;;6.63;;
65759;SDS011;52496;51.082;5.066;2024-03-06T02:53:39;11.48;;;6.70;;
65759;SDS011;52496;51.082;5.066;2024-03-06T02:56:15;12.48;;;7.05;;
65759;SDS011;52496;51.082;5.066;2024-03-06T02:58:46;11.40;;;6.43;;
65759;SDS011;52496;51.082;5.066;2024-03-06T03:01:16;13.43;;;7.50;;
65759;SDS011;52496;51.082;5.066;2024-03-06T03:03:47;12.45;;;6.07;;
65759;SDS011;52496;51.082;5.066;2024-03-06T03:06:17;12.68;;;6.57;;
65759;SDS011;52496;51.082;5.066;2024-03-06T03:08:48;10.38;;;6.55;;
65759;SDS011;52496;51.082;5.066;2024-03-06T03:11:18;16.80;;;6.82;;
65759;SDS011;52496;51.082;5.066;2024-03-06T03:13:49;11.70;;;6.72;;
65759;SDS011;52496;51.082;5.066;2024-03-06T03:16:19;12.15;;;6.57;;
65759;SDS011;52496;51.082;5.066;2024-03-06T03:18:50;13.80;;;7.05;;
65759;SDS011;52496;51.082;5.066;2024-03-06T03:21:22;11.75;;;6.68;;
65759;SDS011;52496;51.082;5.066;2024-03-06T03:23:52;13.48;;;7.35;;
65759;SDS011;52496;51.082;5.066;2024-03-06T03:26:23;12.25;;;6.47;;
65759;SDS011;52496;51.082;5.066;2024-03-06T03:28:53;11.77;;;6.22;;
65759;SDS011;52496;51.082;5.066;2024-03-06T03:31:25;13.75;;;6.18;;
65759;SDS011;52496;51.082;5.066;2024-03-06T03:33:56;14.18;;;7.10;;
65759;SDS011;52496;51.082;5.066;2024-03-06T03:36:26;10.65;;;6.32;;
65759;SDS011;52496;51.082;5.066;2024-03-06T03:38:56;16.23;;;6.63;;
65759;SDS011;52496;51.082;5.066;2024-03-06T03:41:32;12.45;;;7.00;;
65759;SDS011;52496;51.082;5.066;2024-03-06T03:44:03;13.57;;;7.32;;
65759;SDS011;52496;51.082;5.066;2024-03-06T03:46:34;12.70;;;6.57;;
65759;SDS011;52496;51.082;5.066;2024-03-06T03:49:05;10.82;;;7.00;;
65759;SDS011;52496;51.082;5.066;2024-03-06T03:51:37;12.23;;;6.25;;
65759;SDS011;52496;51.082;5.066;2024-03-06T03:54:08;13.02;;;6.60;;
65759;SDS011;52496;51.082;5.066;2024-03-06T03:56:39;10.43;;;6.00;;
65759;SDS011;52496;51.082;5.066;2024-03-06T03:59:09;12.43;;;6.72;;
65759;SDS011;52496;51.082;5.066;2024-03-06T04:01:57;11.15;;;6.47;;
65759;SDS011;52496;51.082;5.066;2024-03-06T04:04:28;16.55;;;6.72;;
65759;SDS011;52496;51.082;5.066;2024-03-06T04:07:05;9.77;;;6.18;;
65759;SDS011;52496;51.082;5.066;2024-03-06T04:09:38;10.43;;;6.50;;
65759;SDS011;52496;51.082;5.066;2024-03-06T04:12:09;19.70;;;6.80;;
65759;SDS011;52496;51.082;5.066;2024-03-06T04:14:39;8.35;;;4.80;;
65759;SDS011;52496;51.082;5.066;2024-03-06T04:17:11;9.13;;;5.22;;
65759;SDS011;52496;51.082;5.066;2024-03-06T04:19:50;10.55;;;6.05;;
65759;SDS011;52496;51.082;5.066;2024-03-06T04:22:28;7.75;;;4.75;;
65759;SDS011;52496;51.082;5.066;2024-03-06T04:24:59;10.68;;;5.32;;
65759;SDS011;52496;51.082;5.066;2024-03-06T04:27:29;11.38;;;6.13;;
65759;SDS011;52496;51.082;5.066;2024-03-06T04:30:02;10.98;;;5.70;;
65759;SDS011;52496;51.082;5.066;2024-03-06T04:32:39;8.63;;;5.05;;
65759;SDS011;52496;51.082;5.066;2024-03-06T04:35:11;10.30;;;5.55;;
65759;SDS011;52496;51.082;5.066;2024-03-06T04:38:01;15.77;;;6.78;;
65759;SDS011;52496;51.082;5.066;2024-03-06T04:40:33;12.73;;;6.75;;
65759;SDS011;52496;51.082;5.066;2024-03-06T04:43:04;13.20;;;7.20;;
65759;SDS011;52496;51.082;5.066;2024-03-06T04:45:42;14.55;;;7.45;;
65759;SDS011;52496;51.082;5.066;2024-03-06T04:48:22;11.93;;;6.70;;
65759;SDS011;52496;51.082;5.066;2024-03-06T04:50:52;13.13;;;6.60;;
65759;SDS011;52496;51.082;5.066;2024-03-06T04:53:23;15.50;;;6.57;;
65759;SDS011;52496;51.082;5.066;2024-03-06T04:55:53;10.85;;;6.20;;
65759;SDS011;52496;51.082;5.066;2024-03-06T04:58:24;11.50;;;6.60;;
65759;SDS011;52496;51.082;5.066;2024-03-06T05:00:54;15.38;;;8.15;;
65759;SDS011;52496;51.082;5.066;2024-03-06T05:03:25;12.88;;;6.68;;
65759;SDS011;52496;51.082;5.066;2024-03-06T05:06:08;15.38;;;8.15;;
65759;SDS011;52496;51.082;5.066;2024-03-06T05:08:38;11.73;;;6.65;;
65759;SDS011;52496;51.082;5.066;2024-03-06T05:11:09;11.93;;;6.78;;
65759;SDS011;52496;51.082;5.066;2024-03-06T05:13:51;10.23;;;6.30;;
65759;SDS011;52496;51.082;5.066;2024-03-06T05:16:22;11.93;;;7.07;;
65759;SDS011;52496;51.082;5.066;2024-03-06T05:18:54;17.50;;;7.57;;
65759;SDS011;52496;51.082;5.066;2024-03-06T05:21:39;13.65;;;7.28;;
65759;SDS011;52496;51.082;5.066;2024-03-06T05:24:10;10.13;;;5.93;;
65759;SDS011;52496;51.082;5.066;2024-03-06T05:26:40;14.35;;;6.78;;
65759;SDS011;52496;51.082;5.066;2024-03-06T05:29:11;13.60;;;6.90;;
65759;SDS011;52496;51.082;5.066;2024-03-06T05:31:42;15.93;;;7.32;;
65759;SDS011;52496;51.082;5.066;2024-03-06T05:34:13;13.52;;;7.47;;
65759;SDS011;52496;51.082;5.066;2024-03-06T05:36:43;14.13;;;6.47;;
65759;SDS011;52496;51.082;5.066;2024-03-06T05:39:26;13.25;;;7.30;;
65759;SDS011;52496;51.082;5.066;2024-03-06T05:42:03;9.80;;;5.47;;
65759;SDS011;52496;51.082;5.066;2024-03-06T05:44:34;14.38;;;5.95;;
65759;SDS011;52496;51.082;5.066;2024-03-06T05:47:04;10.13;;;5.93;;
65759;SDS011;52496;51.082;5.066;2024-03-06T05:49:36;11.00;;;6.03;;
65759;SDS011;52496;51.082;5.066;2024-03-06T05:52:07;12.88;;;7.15;;
65759;SDS011;52496;51.082;5.066;2024-03-06T05:54:49;16.38;;;6.30;;
65759;SDS011;52496;51.082;5.066;2024-03-06T05:57:20;14.65;;;6.90;;
65759;SDS011;52496;51.082;5.066;2024-03-06T05:59:51;14.73;;;6.43;;
65759;SDS011;52496;51.082;5.066;2024-03-06T06:02:21;10.70;;;6.47;;
65759;SDS011;52496;51.082;5.066;2024-03-06T06:04:52;16.92;;;7.22;;
65759;SDS011;52496;51.082;5.066;2024-03-06T06:07:22;11.77;;;7.03;;
65759;SDS011;52496;51.082;5.066;2024-03-06T06:09:59;11.15;;;6.93;;
65759;SDS011;52496;51.082;5.066;2024-03-06T06:12:29;16.63;;;8.05;;
65759;SDS011;52496;51.082;5.066;2024-03-06T06:15:00;12.65;;;6.60;;
65759;SDS011;52496;51.082;5.066;2024-03-06T06:17:30;14.25;;;7.28;;
65759;SDS011;52496;51.082;5.066;2024-03-06T06:20:01;17.10;;;8.55;;
65759;SDS011;52496;51.082;5.066;2024-03-06T06:22:36;15.27;;;8.30;;
65759;SDS011;52496;51.082;5.066;2024-03-06T06:25:08;19.38;;;8.38;;
65759;SDS011;52496;51.082;5.066;2024-03-06T06:27:46;16.58;;;7.88;;
65759;SDS011;52496;51.082;5.066;2024-03-06T06:30:19;16.02;;;8.93;;
65759;SDS011;52496;51.082;5.066;2024-03-06T06:35:39;13.55;;;8.15;;
65759;SDS011;52496;51.082;5.066;2024-03-06T06:38:10;12.80;;;7.95;;
65759;SDS011;52496;51.082;5.066;2024-03-06T06:40:40;13.43;;;8.35;;
65759;SDS011;52496;51.082;5.066;2024-03-06T06:43:20;17.83;;;9.65;;
65759;SDS011;52496;51.082;5.066;2024-03-06T06:45:50;15.38;;;8.57;;
65759;SDS011;52496;51.082;5.066;2024-03-06T06:48:21;16.60;;;8.80;;
65759;SDS011;52496;51.082;5.066;2024-03-06T06:50:51;13.52;;;7.95;;
65759;SDS011;52496;51.082;5.066;2024-03-06T06:53:23;13.65;;;7.85;;
65759;SDS011;52496;51.082;5.066;2024-03-06T06:55:54;12.73;;;7.72;;
65759;SDS011;52496;51.082;5.066;2024-03-06T06:58:24;13.45;;;8.27;;
65759;SDS011;52496;51.082;5.066;2024-03-06T07:00:57;16.35;;;8.23;;
65759;SDS011;52496;51.082;5.066;2024-03-06T07:03:27;17.45;;;9.23;;
65759;SDS011;52496;51.082;5.066;2024-03-06T07:05:59;13.02;;;7.32;;
65759;SDS011;52496;51.082;5.066;2024-03-06T07:08:30;15.40;;;8.68;;
65759;SDS011;52496;51.082;5.066;2024-03-06T07:11:00;17.63;;;10.23;;
65759;SDS011;52496;51.082;5.066;2024-03-06T07:13:48;17.50;;;8.98;;
65759;SDS011;52496;51.082;5.066;2024-03-06T07:16:22;16.27;;;8.80;;
65759;SDS011;52496;51.082;5.066;2024-03-06T07:18:53;14.90;;;8.00;;
65759;SDS011;52496;51.082;5.066;2024-03-06T07:21:36;14.80;;;8.95;;
65759;SDS011;52496;51.082;5.066;2024-03-06T07:24:19;16.63;;;9.35;;
65759;SDS011;52496;51.082;5.066;2024-03-06T07:26:49;12.80;;;7.00;;
65759;SDS011;52496;51.082;5.066;2024-03-06T07:29:29;13.30;;;7.13;;
65759;SDS011;52496;51.082;5.066;2024-03-06T07:32:00;12.68;;;6.88;;
65759;SDS011;52496;51.082;5.066;2024-03-06T07:34:35;16.50;;;7.57;;
65759;SDS011;52496;51.082;5.066;2024-03-06T07:37:06;16.92;;;8.43;;
65759;SDS011;52496;51.082;5.066;2024-03-06T07:39:36;15.75;;;7.68;;
65759;SDS011;52496;51.082;5.066;2024-03-06T07:42:07;14.18;;;7.38;;
65759;SDS011;52496;51.082;5.066;2024-03-06T07:44:37;20.05;;;8.43;;
65759;SDS011;52496;51.082;5.066;2024-03-06T07:47:08;16.50;;;7.57;;
65759;SDS011;52496;51.082;5.066;2024-03-06T07:49:38;17.30;;;6.65;;
65759;SDS011;52496;51.082;5.066;2024-03-06T07:52:30;11.60;;;6.65;;
65759;SDS011;52496;51.082;5.066;2024-03-06T07:55:03;9.68;;;5.50;;
65759;SDS011;52496;51.082;5.066;2024-03-06T07:57:35;11.63;;;6.38;;
65759;SDS011;52496;51.082;5.066;2024-03-06T08:00:09;12.90;;;6.38;;
65759;SDS011;52496;51.082;5.066;2024-03-06T08:02:44;13.13;;;5.82;;
65759;SDS011;52496;51.082;5.066;2024-03-06T08:05:19;12.50;;;6.30;;
65759;SDS011;52496;51.082;5.066;2024-03-06T08:07:51;13.88;;;6.90;;
65759;SDS011;52496;51.082;5.066;2024-03-06T08:10:22;14.27;;;6.95;;
65759;SDS011;52496;51.082;5.066;2024-03-06T08:12:52;13.02;;;6.28;;
65759;SDS011;52496;51.082;5.066;2024-03-06T08:15:23;13.65;;;6.88;;
65759;SDS011;52496;51.082;5.066;2024-03-06T08:17:54;15.88;;;6.68;;
65759;SDS011;52496;51.082;5.066;2024-03-06T08:20:24;11.43;;;5.97;;
65759;SDS011;52496;51.082;5.066;2024-03-06T08:22:55;16.27;;;6.18;;
65759;SDS011;52496;51.082;5.066;2024-03-06T08:25:26;12.00;;;5.25;;
65759;SDS011;52496;51.082;5.066;2024-03-06T08:27:56;11.60;;;6.22;;
65759;SDS011;52496;51.082;5.066;2024-03-06T08:30:30;11.00;;;5.43;;
65759;SDS011;52496;51.082;5.066;2024-03-06T08:33:01;12.45;;;5.50;;
65759;SDS011;52496;51.082;5.066;2024-03-06T08:35:31;9.80;;;5.07;;
65759;SDS011;52496;51.082;5.066;2024-03-06T08:38:02;10.20;;;5.55;;
65759;SDS011;52496;51.082;5.066;2024-03-06T08:40:32;9.07;;;4.90;;
65759;SDS011;52496;51.082;5.066;2024-03-06T08:43:03;8.32;;;4.65;;
65759;SDS011;52496;51.082;5.066;2024-03-06T08:45:34;7.78;;;4.20;;
65759;SDS011;52496;51.082;5.066;2024-03-06T08:48:04;8.77;;;4.70;;
65759;SDS011;52496;51.082;5.066;2024-03-06T08:50:35;9.52;;;5.13;;
65759;SDS011;52496;51.082;5.066;2024-03-06T08:53:06;9.70;;;4.78;;
65759;SDS011;52496;51.082;5.066;2024-03-06T08:58:38;8.35;;;4.10;;
65759;SDS011;52496;51.082;5.066;2024-03-06T09:01:08;8.50;;;4.30;;
65759;SDS011;52496;51.082;5.066;2024-03-06T09:03:39;7.53;;;4.70;;
65759;SDS011;52496;51.082;5.066;2024-03-06T09:06:09;9.43;;;4.55;;
65759;SDS011;52496;51.082;5.066;2024-03-06T09:08:40;9.20;;;5.10;;
65759;SDS011;52496;51.082;5.066;2024-03-06T09:11:11;9.52;;;4.93;;
65759;SDS011;52496;51.082;5.066;2024-03-06T09:13:42;9.50;;;4.65;;
65759;SDS011;52496;51.082;5.066;2024-03-06T09:16:12;8.63;;;4.38;;
65759;SDS011;52496;51.082;5.066;2024-03-06T09:18:43;7.00;;;4.10;;
65759;SDS011;52496;51.082;5.066;2024-03-06T09:21:13;9.57;;;4.90;;
65759;SDS011;52496;51.082;5.066;2024-03-06T09:23:44;8.52;;;5.15;;
65759;SDS011;52496;51.082;5.066;2024-03-06T09:26:14;11.18;;;4.00;;
65759;SDS011;52496;51.082;5.066;2024-03-06T09:28:45;9.48;;;4.15;;
65759;SDS011;52496;51.082;5.066;2024-03-06T09:31:15;9.23;;;4.25;;
65759;SDS011;52496;51.082;5.066;2024-03-06T09:33:46;8.95;;;4.22;;
65759;SDS011;52496;51.082;5.066;2024-03-06T09:36:16;8.55;;;4.38;;
65759;SDS011;52496;51.082;5.066;2024-03-06T09:38:47;8.35;;;4.05;;
65759;SDS011;52496;51.082;5.066;2024-03-06T09:41:17;10.82;;;4.22;;
65759;SDS011;52496;51.082;5.066;2024-03-06T09:43:48;10.95;;;4.55;;
65759;SDS011;52496;51.082;5.066;2024-03-06T09:46:18;9.10;;;4.00;;
65759;SDS011;52496;51.082;5.066;2024-03-06T09:48:49;9.55;;;4.72;;
65759;SDS011;52496;51.082;5.066;2024-03-06T09:51:21;12.27;;;5.00;;
65759;SDS011;52496;51.082;5.066;2024-03-06T09:53:55;7.43;;;3.60;;
65759;SDS011;52496;51.082;5.066;2024-03-06T09:56:25;10.57;;;4.22;;
65759;SDS011;52496;51.082;5.066;2024-03-06T09:58:56;6.80;;;3.45;;
65759;SDS011;52496;51.082;5.066;2024-03-06T10:01:26;9.63;;;3.83;;
65759;SDS011;52496;51.082;5.066;2024-03-06T10:03:59;8.20;;;4.25;;
65759;SDS011;52496;51.082;5.066;2024-03-06T10:06:29;7.65;;;3.67;;
65759;SDS011;52496;51.082;5.066;2024-03-06T10:09:04;7.38;;;3.88;;
65759;SDS011;52496;51.082;5.066;2024-03-06T10:11:39;9.05;;;3.60;;
65759;SDS011;52496;51.082;5.066;2024-03-06T10:14:10;7.90;;;3.85;;
65759;SDS011;52496;51.082;5.066;2024-03-06T10:16:58;6.95;;;3.80;;
65759;SDS011;52496;51.082;5.066;2024-03-06T10:19:29;6.18;;;3.35;;
65759;SDS011;52496;51.082;5.066;2024-03-06T10:22:01;7.97;;;3.45;;
65759;SDS011;52496;51.082;5.066;2024-03-06T10:24:31;7.93;;;3.53;;
65759;SDS011;52496;51.082;5.066;2024-03-06T10:27:02;9.55;;;3.63;;
65759;SDS011;52496;51.082;5.066;2024-03-06T10:29:32;8.23;;;3.70;;
65759;SDS011;52496;51.082;5.066;2024-03-06T10:32:05;6.97;;;3.47;;
65759;SDS011;52496;51.082;5.066;2024-03-06T10:34:37;7.82;;;3.83;;
65759;SDS011;52496;51.082;5.066;2024-03-06T10:37:28;6.32;;;3.58;;
65759;SDS011;52496;51.082;5.066;2024-03-06T10:39:59;9.88;;;3.88;;
65759;SDS011;52496;51.082;5.066;2024-03-06T10:42:41;11.63;;;3.35;;
65759;SDS011;52496;51.082;5.066;2024-03-06T10:45:48;6.00;;;3.13;;
65759;SDS011;52496;51.082;5.066;2024-03-06T10:48:28;6.78;;;3.15;;
65759;SDS011;52496;51.082;5.066;2024-03-06T10:50:59;7.85;;;3.83;;
65759;SDS011;52496;51.082;5.066;2024-03-06T10:53:29;7.93;;;3.38;;
65759;SDS011;52496;51.082;5.066;2024-03-06T10:56:02;7.55;;;3.63;;
65759;SDS011;52496;51.082;5.066;2024-03-06T10:58:35;10.27;;;2.85;;
65759;SDS011;52496;51.082;5.066;2024-03-06T11:01:07;4.80;;;3.08;;
65759;SDS011;52496;51.082;5.066;2024-03-06T11:03:38;7.97;;;3.63;;
65759;SDS011;52496;51.082;5.066;2024-03-06T11:06:09;8.18;;;3.75;;
65759;SDS011;52496;51.082;5.066;2024-03-06T11:08:42;8.30;;;3.53;;
65759;SDS011;52496;51.082;5.066;2024-03-06T11:11:20;6.65;;;3.78;;
65759;SDS011;52496;51.082;5.066;2024-03-06T11:13:58;8.38;;;3.33;;
65759;SDS011;52496;51.082;5.066;2024-03-06T11:16:32;7.47;;;3.15;;
65759;SDS011;52496;51.082;5.066;2024-03-06T11:19:29;5.03;;;3.17;;
65759;SDS011;52496;51.082;5.066;2024-03-06T11:23:00;5.90;;;2.97;;
65759;SDS011;52496;51.082;5.066;2024-03-06T11:28:33;5.20;;;3.00;;
65759;SDS011;52496;51.082;5.066;2024-03-06T11:31:25;5.63;;;2.92;;
65759;SDS011;52496;51.082;5.066;2024-03-06T11:33:57;5.43;;;2.90;;
65759;SDS011;52496;51.082;5.066;2024-03-06T11:36:28;5.88;;;2.97;;
65759;SDS011;52496;51.082;5.066;2024-03-06T11:39:03;6.20;;;2.80;;
65759;SDS011;52496;51.082;5.066;2024-03-06T11:44:20;5.65;;;1.88;;
65759;SDS011;52496;51.082;5.066;2024-03-06T11:46:57;4.93;;;2.20;;
65759;SDS011;52496;51.082;5.066;2024-03-06T11:49:29;4.88;;;3.15;;
65759;SDS011;52496;51.082;5.066;2024-03-06T11:52:10;5.85;;;2.60;;
65759;SDS011;52496;51.082;5.066;2024-03-06T11:54:41;4.40;;;2.35;;
65759;SDS011;52496;51.082;5.066;2024-03-06T11:57:11;4.28;;;2.38;;
65759;SDS011;52496;51.082;5.066;2024-03-06T11:59:46;4.15;;;2.47;;
65759;SDS011;52496;51.082;5.066;2024-03-06T12:02:16;4.60;;;2.25;;
65759;SDS011;52496;51.082;5.066;2024-03-06T12:04:47;4.50;;;2.05;;
65759;SDS011;52496;51.082;5.066;2024-03-06T12:07:18;3.30;;;1.92;;
65759;SDS011;52496;51.082;5.066;2024-03-06T12:09:51;3.22;;;1.92;;
65759;SDS011;52496;51.082;5.066;2024-03-06T12:12:22;3.20;;;2.10;;
65759;SDS011;52496;51.082;5.066;2024-03-06T12:14:57;9.13;;;2.53;;
65759;SDS011;52496;51.082;5.066;2024-03-06T12:17:29;8.90;;;2.50;;
65759;SDS011;52496;51.082;5.066;2024-03-06T12:20:00;4.25;;;2.30;;
65759;SDS011;52496;51.082;5.066;2024-03-06T12:22:35;3.97;;;2.30;;
65759;SDS011;52496;51.082;5.066;2024-03-06T12:25:06;3.85;;;2.25;;
65759;SDS011;52496;51.082;5.066;2024-03-06T12:27:37;4.78;;;2.00;;
65759;SDS011;52496;51.082;5.066;2024-03-06T12:30:08;4.07;;;2.35;;
65759;SDS011;52496;51.082;5.066;2024-03-06T12:32:42;9.30;;;2.85;;
65759;SDS011;52496;51.082;5.066;2024-03-06T12:35:12;4.22;;;2.35;;
65759;SDS011;52496;51.082;5.066;2024-03-06T12:37:43;3.80;;;2.08;;
65759;SDS011;52496;51.082;5.066;2024-03-06T12:40:13;3.15;;;1.88;;
65759;SDS011;52496;51.082;5.066;2024-03-06T12:42:44;2.17;;;1.50;;
65759;SDS011;52496;51.082;5.066;2024-03-06T12:45:16;2.60;;;1.60;;
65759;SDS011;52496;51.082;5.066;2024-03-06T12:47:49;2.58;;;1.55;;
65759;SDS011;52496;51.082;5.066;2024-03-06T12:50:19;2.50;;;1.60;;
65759;SDS011;52496;51.082;5.066;2024-03-06T12:52:50;2.88;;;1.10;;
65759;SDS011;52496;51.082;5.066;2024-03-06T12:55:22;3.08;;;1.60;;
65759;SDS011;52496;51.082;5.066;2024-03-06T12:57:52;3.15;;;1.77;;
65759;SDS011;52496;51.082;5.066;2024-03-06T13:00:23;2.92;;;1.80;;
65759;SDS011;52496;51.082;5.066;2024-03-06T13:02:54;4.90;;;1.58;;
65759;SDS011;52496;51.082;5.066;2024-03-06T13:05:25;3.60;;;1.60;;
65759;SDS011;52496;51.082;5.066;2024-03-06T13:07:55;3.40;;;1.75;;
65759;SDS011;52496;51.082;5.066;2024-03-06T13:10:25;4.00;;;1.85;;
65759;SDS011;52496;51.082;5.066;2024-03-06T13:12:56;3.20;;;1.58;;
65759;SDS011;52496;51.082;5.066;2024-03-06T13:15:26;6.82;;;2.20;;
65759;SDS011;52496;51.082;5.066;2024-03-06T13:17:57;4.25;;;1.83;;
65759;SDS011;52496;51.082;5.066;2024-03-06T13:20:27;1.85;;;1.40;;
65759;SDS011;52496;51.082;5.066;2024-03-06T13:22:58;1.95;;;1.42;;
65759;SDS011;52496;51.082;5.066;2024-03-06T13:25:28;3.20;;;1.52;;
65759;SDS011;52496;51.082;5.066;2024-03-06T13:27:59;2.30;;;1.42;;
65759;SDS011;52496;51.082;5.066;2024-03-06T13:30:30;2.00;;;1.40;;
65759;SDS011;52496;51.082;5.066;2024-03-06T13:33:00;5.40;;;2.17;;
65759;SDS011;52496;51.082;5.066;2024-03-06T13:35:31;5.88;;;2.30;;
65759;SDS011;52496;51.082;5.066;2024-03-06T13:38:01;3.60;;;1.70;;
65759;SDS011;52496;51.082;5.066;2024-03-06T13:40:33;3.28;;;1.75;;
65759;SDS011;52496;51.082;5.066;2024-03-06T13:43:03;4.03;;;2.15;;
65759;SDS011;52496;51.082;5.066;2024-03-06T13:45:34;3.45;;;1.90;;
65759;SDS011;52496;51.082;5.066;2024-03-06T13:48:13;3.10;;;1.65;;
65759;SDS011;52496;51.082;5.066;2024-03-06T13:50:46;2.15;;;1.58;;
65759;SDS011;52496;51.082;5.066;2024-03-06T13:53:16;4.40;;;2.40;;
65759;SDS011;52496;51.082;5.066;2024-03-06T13:55:47;3.17;;;1.90;;
65759;SDS011;52496;51.082;5.066;2024-03-06T13:58:21;3.08;;;1.55;;
65759;SDS011;52496;51.082;5.066;2024-03-06T14:00:52;4.50;;;2.13;;
65759;SDS011;52496;51.082;5.066;2024-03-06T14:03:22;4.80;;;2.17;;
65759;SDS011;52496;51.082;5.066;2024-03-06T14:05:54;3.72;;;1.98;;
65759;SDS011;52496;51.082;5.066;2024-03-06T14:08:25;4.05;;;2.50;;
65759;SDS011;52496;51.082;5.066;2024-03-06T14:10:56;3.25;;;1.77;;
65759;SDS011;52496;51.082;5.066;2024-03-06T14:13:26;4.40;;;1.95;;
65759;SDS011;52496;51.082;5.066;2024-03-06T14:15:57;3.72;;;1.88;;
65759;SDS011;52496;51.082;5.066;2024-03-06T14:18:30;7.45;;;2.10;;
65759;SDS011;52496;51.082;5.066;2024-03-06T14:21:01;5.60;;;2.40;;
65759;SDS011;52496;51.082;5.066;2024-03-06T14:23:31;4.00;;;2.20;;
65759;SDS011;52496;51.082;5.066;2024-03-06T14:26:02;7.82;;;2.72;;
65759;SDS011;52496;51.082;5.066;2024-03-06T14:28:32;6.20;;;3.00;;
65759;SDS011;52496;51.082;5.066;2024-03-06T14:31:03;7.22;;;3.30;;
65759;SDS011;52496;51.082;5.066;2024-03-06T14:33:36;6.63;;;3.08;;
65759;SDS011;52496;51.082;5.066;2024-03-06T14:36:09;4.13;;;2.40;;
65759;SDS011;52496;51.082;5.066;2024-03-06T14:38:39;4.30;;;2.00;;
65759;SDS011;52496;51.082;5.066;2024-03-06T14:41:10;3.15;;;1.88;;
65759;SDS011;52496;51.082;5.066;2024-03-06T14:43:41;5.63;;;2.20;;
65759;SDS011;52496;51.082;5.066;2024-03-06T14:46:11;4.55;;;2.25;;
65759;SDS011;52496;51.082;5.066;2024-03-06T14:48:42;5.00;;;1.80;;
65759;SDS011;52496;51.082;5.066;2024-03-06T14:51:14;3.60;;;1.80;;
65759;SDS011;52496;51.082;5.066;2024-03-06T14:53:45;4.22;;;2.38;;
65759;SDS011;52496;51.082;5.066;2024-03-06T14:56:16;7.32;;;2.30;;
65759;SDS011;52496;51.082;5.066;2024-03-06T14:58:47;3.95;;;1.95;;
65759;SDS011;52496;51.082;5.066;2024-03-06T15:01:19;4.13;;;2.13;;
65759;SDS011;52496;51.082;5.066;2024-03-06T15:03:49;4.07;;;1.98;;
65759;SDS011;52496;51.082;5.066;2024-03-06T15:06:20;5.05;;;2.20;;
65759;SDS011;52496;51.082;5.066;2024-03-06T15:08:50;4.00;;;2.30;;
65759;SDS011;52496;51.082;5.066;2024-03-06T15:11:21;5.63;;;2.10;;
65759;SDS011;52496;51.082;5.066;2024-03-06T15:13:54;4.93;;;2.40;;
65759;SDS011;52496;51.082;5.066;2024-03-06T15:16:25;5.15;;;2.58;;
65759;SDS011;52496;51.082;5.066;2024-03-06T15:18:55;6.63;;;2.65;;
65759;SDS011;52496;51.082;5.066;2024-03-06T15:21:27;3.47;;;2.20;;
65759;SDS011;52496;51.082;5.066;2024-03-06T15:23:57;4.28;;;2.58;;
65759;SDS011;52496;51.082;5.066;2024-03-06T15:26:28;4.15;;;2.30;;